createdAt,value
2018-03-11T00:02:21.106Z,10.69
2018-03-11T00:04:48.709Z,10.70
2018-03-11T00:07:16.597Z,10.76
2018-03-11T00:09:44.148Z,10.79
2018-03-11T00:12:11.772Z,10.82
2018-03-11T00:14:39.397Z,10.79
2018-03-11T00:17:07.040Z,10.78
2018-03-11T00:19:34.607Z,10.80
2018-03-11T00:22:02.318Z,10.79
2018-03-11T00:24:29.883Z,10.82
2018-03-11T00:26:58.100Z,10.85
2018-03-11T00:29:26.160Z,10.86
2018-03-11T00:31:53.725Z,10.83
2018-03-11T00:34:21.281Z,10.81
2018-03-11T00:36:48.913Z,10.84
2018-03-11T00:39:16.492Z,10.89
2018-03-11T00:41:44.037Z,10.91
2018-03-11T00:44:11.891Z,10.94
2018-03-11T00:46:39.462Z,10.93
2018-03-11T00:49:07.025Z,10.89
2018-03-11T00:51:34.640Z,10.86
2018-03-11T00:54:02.208Z,10.85
2018-03-11T00:56:29.789Z,10.80
2018-03-11T00:58:57.665Z,10.78
2018-03-11T01:01:25.241Z,10.81
2018-03-11T01:03:52.871Z,10.85
2018-03-11T01:06:20.479Z,10.87
2018-03-11T01:08:48.040Z,10.90
2018-03-11T01:11:15.610Z,10.90
2018-03-11T01:13:43.312Z,10.91
2018-03-11T01:16:10.868Z,10.87
2018-03-11T01:18:38.423Z,10.86
2018-03-11T01:21:06.254Z,10.87
2018-03-11T01:23:33.801Z,10.88
2018-03-11T01:26:01.356Z,10.91
2018-03-11T01:28:29.045Z,10.93
2018-03-11T01:30:56.617Z,10.96
2018-03-11T01:33:24.187Z,10.99
2018-03-11T01:35:51.783Z,11.02
2018-03-11T01:38:19.337Z,11.06
2018-03-11T01:40:46.884Z,11.09
2018-03-11T01:43:14.501Z,11.12
2018-03-11T01:45:42.060Z,11.11
2018-03-11T01:48:09.641Z,11.10
2018-03-11T01:50:37.309Z,11.08
2018-03-11T01:53:09.872Z,11.09
2018-03-11T01:55:37.501Z,11.10
2018-03-11T01:58:05.052Z,11.14
2018-03-11T02:00:32.669Z,11.14
2018-03-11T02:03:00.593Z,11.17
2018-03-11T02:05:28.182Z,11.16
2018-03-11T02:07:55.745Z,11.08
2018-03-11T02:10:23.362Z,11.07
2018-03-11T02:12:50.930Z,11.06
2018-03-11T02:15:18.562Z,11.06
2018-03-11T02:17:46.169Z,11.07
2018-03-11T02:20:13.722Z,11.06
2018-03-11T02:22:41.314Z,10.99
2018-03-11T02:25:08.942Z,10.93
2018-03-11T02:27:36.558Z,10.91
2018-03-11T02:30:04.146Z,10.86
2018-03-11T02:32:31.757Z,10.81
2018-03-11T02:34:59.312Z,10.72
2018-03-11T02:37:26.893Z,10.67
2018-03-11T02:39:54.822Z,10.63
2018-03-11T02:42:22.410Z,10.55
2018-03-11T02:44:49.976Z,10.53
2018-03-11T02:47:17.604Z,10.49
2018-03-11T02:49:45.172Z,10.43
2018-03-11T02:52:12.732Z,10.39
2018-03-11T02:54:40.362Z,10.36
2018-03-11T02:57:08.667Z,10.37
2018-03-11T02:59:36.231Z,10.35
2018-03-11T03:02:03.974Z,10.29
2018-03-11T03:04:31.553Z,10.25
2018-03-11T03:06:59.125Z,10.22
2018-03-11T03:09:27.000Z,10.19
2018-03-11T03:11:54.630Z,10.13
2018-03-11T03:14:22.242Z,10.09
2018-03-11T03:16:49.922Z,10.11
2018-03-11T03:19:17.485Z,10.09
2018-03-11T03:21:46.026Z,10.03
2018-03-11T03:24:13.707Z,10.02
2018-03-11T03:26:41.290Z,10.03
2018-03-11T03:29:08.863Z,10.04
2018-03-11T03:31:36.480Z,10.03
2018-03-11T03:34:04.097Z,10.05
2018-03-11T03:36:31.648Z,10.05
2018-03-11T03:38:59.257Z,10.00
2018-03-11T03:41:26.812Z,10.00
2018-03-11T03:43:54.364Z,10.00
2018-03-11T03:46:22.013Z,10.04
2018-03-11T03:48:49.568Z,10.09
2018-03-11T03:51:17.154Z,10.13
2018-03-11T03:53:45.040Z,10.11
2018-03-11T03:56:12.612Z,10.13
2018-03-11T03:58:40.180Z,10.15
2018-03-11T04:01:07.800Z,10.17
2018-03-11T04:03:35.616Z,10.19
2018-03-11T04:06:03.185Z,10.22
2018-03-11T04:08:30.794Z,10.18
2018-03-11T04:10:58.363Z,10.12
2018-03-11T04:13:25.936Z,10.08
2018-03-11T04:15:53.533Z,10.06
2018-03-11T04:18:21.092Z,10.06
2018-03-11T04:20:48.686Z,10.04
2018-03-11T04:23:16.633Z,9.93
2018-03-11T04:25:44.197Z,9.78
2018-03-11T04:28:11.791Z,9.75
2018-03-11T04:30:39.416Z,9.72
2018-03-11T04:33:06.975Z,9.70
2018-03-11T04:35:34.642Z,9.66
2018-03-11T04:38:02.242Z,9.62
2018-03-11T04:40:29.788Z,9.50
2018-03-11T04:42:57.343Z,9.46
2018-03-11T04:45:24.964Z,9.39
2018-03-11T04:47:52.542Z,9.35
2018-03-11T04:50:20.168Z,9.34
2018-03-11T04:52:47.781Z,9.35
2018-03-11T04:55:15.393Z,9.29
2018-03-11T04:57:42.944Z,9.28
2018-03-11T05:00:10.594Z,9.27
2018-03-11T05:02:38.143Z,9.30
2018-03-11T05:05:05.760Z,9.30
2018-03-11T05:07:33.672Z,9.38
2018-03-11T05:10:01.238Z,9.45
2018-03-11T05:12:28.789Z,9.48
2018-03-11T05:14:56.392Z,9.54
2018-03-11T05:17:23.962Z,9.63
2018-03-11T05:19:51.527Z,9.74
2018-03-11T05:22:19.125Z,9.85
2018-03-11T05:24:46.694Z,9.88
2018-03-11T05:27:14.269Z,10.29
2018-03-11T05:29:41.891Z,11.34
2018-03-11T05:32:09.458Z,11.73
2018-03-11T05:34:37.022Z,11.73
2018-03-11T05:37:04.639Z,11.56
2018-03-11T05:39:32.270Z,11.34
2018-03-11T05:41:59.892Z,11.23
2018-03-11T05:44:27.666Z,11.48
2018-03-11T05:46:55.250Z,12.66
2018-03-11T05:49:22.820Z,14.08
2018-03-11T05:51:50.451Z,15.17
2018-03-11T05:54:18.018Z,15.96
2018-03-11T05:56:45.580Z,16.54
2018-03-11T05:59:13.217Z,17.12
2018-03-11T06:01:40.838Z,17.39
2018-03-11T06:04:08.409Z,17.58
2018-03-11T06:06:36.315Z,17.45
2018-03-11T06:09:04.042Z,17.58
2018-03-11T06:11:32.401Z,17.74
2018-03-11T06:14:00.020Z,17.96
2018-03-11T06:16:27.597Z,17.81
2018-03-11T06:18:55.820Z,18.04
2018-03-11T06:21:23.454Z,18.27
2018-03-11T06:23:51.109Z,18.34
2018-03-11T06:26:18.753Z,18.53
2018-03-11T06:28:46.369Z,18.64
2018-03-11T06:31:13.945Z,19.28
2018-03-11T06:33:41.527Z,19.33
2018-03-11T06:36:09.175Z,19.12
2018-03-11T06:38:36.837Z,19.34
2018-03-11T06:41:04.407Z,19.62
2018-03-11T06:43:32.329Z,19.94
2018-03-11T06:45:59.934Z,20.43
2018-03-11T06:48:27.506Z,20.61
2018-03-11T06:50:55.411Z,20.99
2018-03-11T06:53:23.061Z,21.24
2018-03-11T06:55:50.637Z,21.24
2018-03-11T06:58:18.265Z,21.42
2018-03-11T07:00:45.823Z,21.39
2018-03-11T07:03:13.462Z,21.36
2018-03-11T07:05:41.718Z,21.10
2018-03-11T07:08:09.445Z,21.00
2018-03-11T07:10:37.024Z,21.13
2018-03-11T07:13:04.645Z,21.22
2018-03-11T07:15:32.282Z,21.40
2018-03-11T07:17:59.864Z,21.58
2018-03-11T07:20:27.497Z,21.76
2018-03-11T07:22:55.070Z,21.81
2018-03-11T07:25:22.636Z,22.16
2018-03-11T07:27:50.294Z,22.24
2018-03-11T07:30:17.928Z,22.40
2018-03-11T07:32:45.480Z,21.32
2018-03-11T07:35:13.133Z,21.41
2018-03-11T07:37:41.340Z,21.47
2018-03-11T07:40:08.924Z,21.20
2018-03-11T07:42:36.618Z,20.99
2018-03-11T07:45:04.220Z,21.01
2018-03-11T07:47:31.792Z,21.20
2018-03-11T07:49:59.413Z,21.15
2018-03-11T07:52:26.985Z,21.43
2018-03-11T07:54:54.572Z,21.37
2018-03-11T07:57:22.198Z,21.59
2018-03-11T07:59:50.370Z,21.37
2018-03-11T08:02:17.953Z,21.55
2018-03-11T08:04:46.544Z,21.68
2018-03-11T08:07:14.138Z,21.15
2018-03-11T08:09:41.953Z,21.45
2018-03-11T08:12:09.582Z,21.54
2018-03-11T08:14:37.178Z,21.41
2018-03-11T08:17:04.764Z,21.29
2018-03-11T08:19:32.382Z,21.11
2018-03-11T08:21:59.971Z,20.73
2018-03-11T08:24:27.551Z,20.62
2018-03-11T08:26:55.187Z,20.54
2018-03-11T08:29:22.756Z,20.25
2018-03-11T08:31:50.348Z,19.82
2018-03-11T08:34:17.999Z,19.83
2018-03-11T08:36:45.580Z,19.85
2018-03-11T08:39:13.165Z,19.52
2018-03-11T08:41:40.810Z,19.23
2018-03-11T08:44:08.390Z,19.45
2018-03-11T08:46:35.985Z,19.69
2018-03-11T08:49:03.604Z,19.32
2018-03-11T08:51:31.180Z,19.44
2018-03-11T08:53:58.770Z,19.50
2018-03-11T08:56:26.397Z,19.52
2018-03-11T08:58:53.956Z,19.46
2018-03-11T09:01:21.519Z,19.43
2018-03-11T09:03:49.206Z,19.16
2018-03-11T09:06:16.784Z,19.34
2018-03-11T09:08:44.349Z,19.34
2018-03-11T09:11:12.502Z,19.26
2018-03-11T09:13:40.124Z,19.03
2018-03-11T09:16:07.740Z,19.34
2018-03-11T09:18:35.420Z,19.57
2018-03-11T09:21:02.985Z,19.76
2018-03-11T09:23:30.548Z,19.79
2018-03-11T09:25:58.162Z,19.39
2018-03-11T09:28:25.822Z,19.54
2018-03-11T09:30:53.392Z,19.77
2018-03-11T09:33:21.010Z,20.48
2018-03-11T09:35:48.590Z,20.42
2018-03-11T09:38:16.173Z,20.34
2018-03-11T09:40:43.813Z,20.41
2018-03-11T09:43:11.389Z,20.41
2018-03-11T09:45:38.962Z,20.31
2018-03-11T09:48:06.798Z,20.44
2018-03-11T09:50:34.370Z,20.49
2018-03-11T09:53:01.941Z,20.66
2018-03-11T09:55:29.561Z,20.76
2018-03-11T09:57:57.136Z,20.88
2018-03-11T10:00:25.571Z,20.81
2018-03-11T10:02:53.201Z,20.35
2018-03-11T10:05:20.772Z,20.42
2018-03-11T10:07:48.403Z,20.39
2018-03-11T10:10:16.022Z,20.85
2018-03-11T10:12:44.076Z,20.80
2018-03-11T10:15:11.706Z,20.67
2018-03-11T10:17:39.335Z,20.71
2018-03-11T10:20:06.949Z,20.88
2018-03-11T10:22:34.517Z,20.91
2018-03-11T10:25:02.415Z,21.13
2018-03-11T10:27:30.004Z,21.36
2018-03-11T10:29:57.582Z,21.45
2018-03-11T10:32:25.203Z,21.30
2018-03-11T10:34:52.851Z,21.00
2018-03-11T10:37:21.058Z,20.96
2018-03-11T10:39:48.786Z,21.08
2018-03-11T10:42:16.340Z,21.19
2018-03-11T10:44:43.979Z,21.10
2018-03-11T10:47:11.652Z,21.24
2018-03-11T10:49:39.210Z,21.20
2018-03-11T10:52:06.775Z,21.29
2018-03-11T10:54:34.458Z,21.34
2018-03-11T10:57:02.049Z,21.18
2018-03-11T10:59:29.606Z,21.15
2018-03-11T11:02:16.781Z,21.12
2018-03-11T11:04:49.864Z,21.42
2018-03-11T11:07:17.725Z,21.50
2018-03-11T11:09:45.289Z,21.21
2018-03-11T11:12:12.837Z,21.50
2018-03-11T11:14:40.540Z,21.46
2018-03-11T11:17:08.102Z,21.55
2018-03-11T11:19:35.655Z,21.56
2018-03-11T11:22:03.317Z,21.75
2018-03-11T11:24:30.875Z,21.78
2018-03-11T11:26:59.382Z,22.02
2018-03-11T11:29:26.998Z,22.32
2018-03-11T11:31:54.618Z,22.11
2018-03-11T11:34:22.188Z,21.97
2018-03-11T11:36:49.813Z,22.19
2018-03-11T11:39:17.372Z,22.78
2018-03-11T11:41:44.920Z,22.89
2018-03-11T11:44:12.534Z,22.54
2018-03-11T11:46:40.122Z,22.60
2018-03-11T11:49:07.707Z,22.59
2018-03-11T11:51:35.419Z,22.92
2018-03-11T11:54:02.970Z,23.43
2018-03-11T11:56:30.544Z,23.71
2018-03-11T11:58:58.245Z,23.74
2018-03-11T12:01:26.418Z,23.82
2018-03-11T12:03:53.972Z,24.79
2018-03-11T12:06:21.595Z,25.49
2018-03-11T12:08:49.166Z,25.92
2018-03-11T12:11:16.742Z,26.87
2018-03-11T12:13:44.356Z,27.53
2018-03-11T12:16:12.881Z,27.59
2018-03-11T12:18:40.442Z,27.62
2018-03-11T12:21:08.334Z,28.18
2018-03-11T12:23:35.888Z,27.75
2018-03-11T12:26:03.482Z,27.28
2018-03-11T12:28:31.145Z,27.23
2018-03-11T12:30:58.706Z,26.82
2018-03-11T12:33:26.327Z,26.32
2018-03-11T12:35:53.960Z,26.66
2018-03-11T12:38:21.604Z,27.52
2018-03-11T12:40:49.173Z,27.20
2018-03-11T12:43:16.805Z,25.36
2018-03-11T12:45:44.437Z,25.36
2018-03-11T12:48:11.988Z,24.78
2018-03-11T12:50:39.826Z,24.40
2018-03-11T12:53:07.405Z,24.36
2018-03-11T12:55:34.968Z,24.56
2018-03-11T12:58:03.424Z,24.40
2018-03-11T13:00:30.986Z,24.23
2018-03-11T13:02:58.563Z,23.33
2018-03-11T13:05:26.175Z,22.70
2018-03-11T13:07:53.733Z,22.82
2018-03-11T13:10:21.296Z,23.10
2018-03-11T13:12:48.906Z,23.14
2018-03-11T13:15:16.480Z,23.77
2018-03-11T13:17:44.494Z,23.67
2018-03-11T13:20:24.085Z,23.47
2018-03-11T13:22:51.657Z,22.99
2018-03-11T13:25:19.293Z,22.93
2018-03-11T13:27:59.096Z,22.18
2018-03-11T13:30:26.662Z,22.35
2018-03-11T13:33:06.051Z,22.15
2018-03-11T13:35:33.689Z,22.05
2018-03-11T13:38:12.922Z,21.94
2018-03-11T13:40:41.512Z,21.62
2018-03-11T13:43:09.213Z,21.47
2018-03-11T13:45:48.417Z,21.31
2018-03-11T13:48:16.070Z,21.27
2018-03-11T13:50:43.637Z,21.15
2018-03-11T13:53:23.121Z,21.08
2018-03-11T13:55:50.796Z,21.04
2018-03-11T13:58:24.402Z,21.12
2018-03-11T14:00:52.031Z,21.12
2018-03-11T14:03:19.584Z,21.07
2018-03-11T14:05:47.229Z,21.02
2018-03-11T14:08:14.798Z,20.85
2018-03-11T14:10:42.364Z,20.79
2018-03-11T14:13:10.003Z,20.57
2018-03-11T14:15:37.582Z,20.53
2018-03-11T14:18:05.438Z,20.57
2018-03-11T14:20:33.052Z,20.57
2018-03-11T14:23:00.706Z,20.55
2018-03-11T14:25:28.277Z,20.44
2018-03-11T14:27:55.970Z,20.41
2018-03-11T14:30:23.534Z,20.39
2018-03-11T14:32:51.125Z,20.42
2018-03-11T14:35:18.749Z,20.26
2018-03-11T14:37:46.327Z,20.30
2018-03-11T14:40:13.937Z,20.35
2018-03-11T14:42:41.849Z,20.32
2018-03-11T14:45:09.447Z,20.24
2018-03-11T14:47:37.030Z,20.15
2018-03-11T14:50:04.685Z,20.13
2018-03-11T14:52:32.326Z,20.00
2018-03-11T14:54:59.946Z,19.92
2018-03-11T14:57:27.554Z,19.95
2018-03-11T14:59:55.137Z,19.95
2018-03-11T15:02:22.699Z,19.98
2018-03-11T15:04:50.313Z,19.96
2018-03-11T15:07:17.888Z,19.96
2018-03-11T15:09:45.455Z,19.91
2018-03-11T15:12:13.132Z,19.92
2018-03-11T15:14:40.706Z,19.90
2018-03-11T15:17:08.310Z,19.85
2018-03-11T15:19:36.305Z,19.84
2018-03-11T15:22:03.924Z,19.73
2018-03-11T15:24:31.498Z,19.67
2018-03-11T15:26:59.134Z,19.57
2018-03-11T15:29:26.702Z,19.58
2018-03-11T15:31:54.314Z,19.53
2018-03-11T15:34:21.937Z,19.45
2018-03-11T15:36:49.493Z,19.43
2018-03-11T15:39:17.126Z,19.43
2018-03-11T15:41:44.750Z,19.42
2018-03-11T15:44:12.312Z,19.37
2018-03-11T15:46:39.882Z,19.36
2018-03-11T15:49:07.607Z,19.32
2018-03-11T15:51:35.214Z,19.31
2018-03-11T15:54:02.787Z,19.25
2018-03-11T15:56:30.703Z,19.21
2018-03-11T15:58:58.299Z,19.03
2018-03-11T16:01:25.861Z,18.81
2018-03-11T16:03:53.486Z,18.56
2018-03-11T16:06:21.053Z,18.36
2018-03-11T16:08:48.618Z,18.17
2018-03-11T16:11:16.237Z,18.05
2018-03-11T16:13:44.685Z,17.96
2018-03-11T16:16:12.256Z,17.88
2018-03-11T16:18:39.860Z,17.76
2018-03-11T16:21:07.453Z,17.67
2018-03-11T16:23:35.013Z,17.57
2018-03-11T16:26:02.695Z,17.46
2018-03-11T16:28:30.295Z,17.34
2018-03-11T16:30:57.982Z,17.22
2018-03-11T16:33:25.805Z,17.10
2018-03-11T16:35:53.475Z,17.02
2018-03-11T16:38:21.049Z,16.95
2018-03-11T16:40:48.686Z,16.91
2018-03-11T16:43:16.267Z,16.84
2018-03-11T16:45:43.874Z,16.79
2018-03-11T16:48:11.517Z,16.77
2018-03-11T16:50:39.158Z,16.73
2018-03-11T16:53:06.773Z,16.65
2018-03-11T16:55:34.395Z,16.53
2018-03-11T16:58:02.071Z,16.39
2018-03-11T17:00:29.632Z,16.23
2018-03-11T17:02:57.268Z,16.12
2018-03-11T17:05:24.832Z,16.07
2018-03-11T17:07:52.424Z,16.12
2018-03-11T17:10:20.118Z,16.12
2018-03-11T17:12:47.696Z,16.03
2018-03-11T17:15:15.340Z,15.95
2018-03-11T17:17:43.119Z,15.82
2018-03-11T17:20:10.705Z,15.69
2018-03-11T17:22:38.469Z,15.65
2018-03-11T17:25:06.109Z,15.56
2018-03-11T17:27:33.707Z,15.45
2018-03-11T17:30:01.379Z,15.37
2018-03-11T17:32:28.981Z,15.32
2018-03-11T17:34:56.560Z,15.22
2018-03-11T17:37:24.228Z,15.09
2018-03-11T17:39:51.991Z,14.99
2018-03-11T17:42:20.367Z,14.89
2018-03-11T17:44:48.042Z,14.80
2018-03-11T17:47:16.265Z,14.66
2018-03-11T17:49:43.903Z,14.53
2018-03-11T17:52:11.594Z,14.44
2018-03-11T17:54:39.293Z,14.41
2018-03-11T17:57:06.939Z,14.37
2018-03-11T17:59:34.795Z,14.35
2018-03-11T18:02:02.644Z,14.30
2018-03-11T18:04:30.530Z,14.27
2018-03-11T18:06:58.280Z,14.22
2018-03-11T18:09:26.203Z,14.17
2018-03-11T18:11:53.921Z,14.14
2018-03-11T18:14:21.802Z,14.10
2018-03-11T18:16:49.994Z,14.12
2018-03-11T18:19:18.475Z,14.13
2018-03-11T18:21:46.340Z,14.12
2018-03-11T18:24:14.446Z,14.10
2018-03-11T18:26:42.351Z,14.09
2018-03-11T18:29:10.242Z,14.06
2018-03-11T18:31:38.148Z,14.02
2018-03-11T18:34:06.030Z,13.99
2018-03-11T18:36:33.870Z,13.95
2018-03-11T18:39:01.777Z,13.92
2018-03-11T18:41:29.686Z,13.81
2018-03-11T18:43:57.464Z,13.83
2018-03-11T18:46:25.291Z,13.81
2018-03-11T18:48:53.139Z,13.72
2018-03-11T18:51:20.935Z,13.65
2018-03-11T18:53:48.860Z,13.64
2018-03-11T18:56:16.695Z,13.63
2018-03-11T18:58:44.485Z,13.60
2018-03-11T19:01:12.607Z,13.56
2018-03-11T19:03:40.518Z,13.53
2018-03-11T19:06:08.363Z,13.53
2018-03-11T19:08:36.298Z,13.51
2018-03-11T19:11:04.150Z,13.55
2018-03-11T19:13:32.044Z,13.47
2018-03-11T19:16:00.029Z,13.40
2018-03-11T19:18:27.952Z,13.33
2018-03-11T19:20:55.768Z,13.23
2018-03-11T19:23:23.672Z,13.19
2018-03-11T19:25:51.608Z,13.13
2018-03-11T19:28:19.500Z,13.11
2018-03-11T19:30:47.358Z,13.06
2018-03-11T19:33:15.230Z,13.04
2018-03-11T19:35:44.927Z,13.01
2018-03-11T19:38:13.089Z,12.99
2018-03-11T19:40:40.958Z,12.97
2018-03-11T19:43:08.890Z,12.96
2018-03-11T19:45:36.882Z,12.90
2018-03-11T19:48:04.832Z,12.89
2018-03-11T19:50:32.693Z,12.93
2018-03-11T19:53:00.678Z,12.91
2018-03-11T19:55:28.550Z,12.85
2018-03-11T19:57:56.398Z,12.82
2018-03-11T20:00:24.323Z,12.78
2018-03-11T20:02:52.244Z,12.74
2018-03-11T20:05:20.100Z,12.73
2018-03-11T20:07:48.612Z,12.68
2018-03-11T20:10:16.466Z,12.61
2018-03-11T20:12:44.307Z,12.57
2018-03-11T20:15:12.182Z,12.58
2018-03-11T20:17:40.072Z,12.56
2018-03-11T20:20:07.942Z,12.49
2018-03-11T20:22:36.092Z,12.51
2018-03-11T20:25:03.906Z,12.54
2018-03-11T20:27:31.725Z,12.57
2018-03-11T20:29:59.547Z,12.58
2018-03-11T20:32:27.215Z,12.61
2018-03-11T20:34:54.830Z,12.60
2018-03-11T20:37:22.484Z,12.60
2018-03-11T20:39:50.057Z,12.60
2018-03-11T20:42:17.732Z,12.62
2018-03-11T20:44:45.436Z,12.60
2018-03-11T20:47:13.008Z,12.62
2018-03-11T20:49:40.656Z,12.63
2018-03-11T20:52:08.526Z,12.63
2018-03-11T20:54:36.096Z,12.54
2018-03-11T20:57:03.667Z,12.43
2018-03-11T20:59:31.362Z,12.33
2018-03-11T21:01:58.949Z,12.22
2018-03-11T21:04:26.541Z,12.18
2018-03-11T21:06:54.163Z,12.13
2018-03-11T21:09:21.745Z,12.09
2018-03-11T21:11:49.303Z,12.05
2018-03-11T21:14:16.920Z,12.01
2018-03-11T21:16:44.485Z,11.93
2018-03-11T21:19:12.141Z,11.92
2018-03-11T21:21:39.766Z,11.92
2018-03-11T21:24:07.350Z,11.91
2018-03-11T21:26:34.925Z,11.95
2018-03-11T21:29:02.985Z,11.93
2018-03-11T21:31:30.545Z,11.90
2018-03-11T21:33:58.144Z,11.88
2018-03-11T21:36:25.793Z,11.92
2018-03-11T21:38:53.373Z,11.92
2018-03-11T21:41:20.935Z,11.97
2018-03-11T21:43:48.543Z,12.01
2018-03-11T21:46:16.120Z,12.03
2018-03-11T21:48:43.696Z,12.05
2018-03-11T21:51:11.322Z,12.06
2018-03-11T21:53:38.916Z,12.07
2018-03-11T21:56:06.508Z,12.12
2018-03-11T21:58:34.143Z,12.11
2018-03-11T22:01:01.783Z,12.12
2018-03-11T22:03:30.177Z,12.13
2018-03-11T22:05:58.059Z,12.14
2018-03-11T22:08:25.720Z,12.13
2018-03-11T22:10:53.289Z,12.11
2018-03-11T22:13:20.920Z,12.06
2018-03-11T22:15:50.338Z,12.02
2018-03-11T22:18:17.924Z,11.97
2018-03-11T22:20:45.549Z,11.91
2018-03-11T22:23:13.100Z,11.87
2018-03-11T22:25:40.665Z,11.85
2018-03-11T22:28:08.400Z,11.81
2018-03-11T22:30:36.209Z,11.80
2018-03-11T22:33:03.850Z,11.76
2018-03-11T22:35:31.534Z,11.68
2018-03-11T22:37:59.937Z,11.61
2018-03-11T22:40:27.507Z,11.58
2018-03-11T22:42:55.465Z,11.64
2018-03-11T22:45:23.133Z,11.73
2018-03-11T22:47:50.711Z,11.80
2018-03-11T22:50:18.640Z,11.86
2018-03-11T22:52:46.254Z,11.91
2018-03-11T22:55:13.924Z,11.98
2018-03-11T22:57:41.560Z,12.04
2018-03-11T23:00:09.186Z,12.07
2018-03-11T23:02:36.757Z,12.04
2018-03-11T23:05:04.480Z,12.02
2018-03-11T23:07:32.045Z,11.95
2018-03-11T23:09:59.637Z,11.87
2018-03-11T23:12:27.327Z,11.83
2018-03-11T23:14:54.912Z,11.74
2018-03-11T23:17:22.476Z,11.64
2018-03-11T23:19:50.072Z,11.57
2018-03-11T23:22:17.656Z,11.47
2018-03-11T23:24:45.234Z,11.43
2018-03-11T23:27:13.087Z,11.36
2018-03-11T23:29:40.684Z,11.33
2018-03-11T23:32:08.374Z,11.27
2018-03-11T23:34:35.987Z,11.18
2018-03-11T23:37:03.556Z,11.11
2018-03-11T23:39:31.116Z,11.06
2018-03-11T23:41:58.728Z,11.07
2018-03-11T23:44:26.284Z,11.08
2018-03-11T23:46:53.845Z,11.05
2018-03-11T23:49:21.494Z,10.99
2018-03-11T23:51:49.048Z,10.95
2018-03-11T23:54:16.630Z,10.92
2018-03-11T23:56:44.231Z,10.88
2018-03-11T23:59:11.798Z,10.85
